sensor_id;sensor_type;location;lat;lon;timestamp;P1;durP1;ratioP1;P2;durP2;ratioP2
12962;SDS011;6546;49.882;8.666;2023-03-13T00:00:59;12.50;;;3.50;;
12962;SDS011;6546;49.882;8.666;2023-03-13T00:03:26;12.77;;;3.93;;
12962;SDS011;6546;49.882;8.666;2023-03-13T00:05:54;11.87;;;3.90;;
12962;SDS011;6546;49.882;8.666;2023-03-13T00:08:22;11.67;;;3.47;;
12962;SDS011;6546;49.882;8.666;2023-03-13T00:10:48;14.17;;;4.50;;
12962;SDS011;6546;49.882;8.666;2023-03-13T00:13:15;14.83;;;3.63;;
12962;SDS011;6546;49.882;8.666;2023-03-13T00:15:43;14.33;;;3.40;;
12962;SDS011;6546;49.882;8.666;2023-03-13T00:18:10;10.33;;;3.10;;
12962;SDS011;6546;49.882;8.666;2023-03-13T00:20:36;13.90;;;3.50;;
12962;SDS011;6546;49.882;8.666;2023-03-13T00:23:03;12.37;;;3.37;;
12962;SDS011;6546;49.882;8.666;2023-03-13T00:25:30;12.60;;;3.30;;
12962;SDS011;6546;49.882;8.666;2023-03-13T00:27:57;9.40;;;3.17;;
12962;SDS011;6546;49.882;8.666;2023-03-13T00:30:24;13.40;;;3.50;;
12962;SDS011;6546;49.882;8.666;2023-03-13T00:32:52;13.90;;;3.67;;
12962;SDS011;6546;49.882;8.666;2023-03-13T00:35:18;11.47;;;3.40;;
12962;SDS011;6546;49.882;8.666;2023-03-13T00:37:45;15.03;;;3.20;;
12962;SDS011;6546;49.882;8.666;2023-03-13T00:40:12;15.10;;;3.50;;
12962;SDS011;6546;49.882;8.666;2023-03-13T00:42:39;12.40;;;3.10;;
12962;SDS011;6546;49.882;8.666;2023-03-13T00:45:06;10.20;;;3.07;;
12962;SDS011;6546;49.882;8.666;2023-03-13T00:47:35;11.63;;;3.23;;
12962;SDS011;6546;49.882;8.666;2023-03-13T00:50:05;10.53;;;3.10;;
12962;SDS011;6546;49.882;8.666;2023-03-13T00:52:32;12.67;;;3.23;;
12962;SDS011;6546;49.882;8.666;2023-03-13T00:54:58;12.03;;;3.33;;
12962;SDS011;6546;49.882;8.666;2023-03-13T00:57:25;8.23;;;2.97;;
12962;SDS011;6546;49.882;8.666;2023-03-13T00:59:52;10.00;;;2.90;;
12962;SDS011;6546;49.882;8.666;2023-03-13T01:02:19;12.20;;;3.50;;
12962;SDS011;6546;49.882;8.666;2023-03-13T01:04:46;15.50;;;4.30;;
12962;SDS011;6546;49.882;8.666;2023-03-13T01:07:14;10.67;;;2.97;;
12962;SDS011;6546;49.882;8.666;2023-03-13T01:09:40;9.10;;;2.80;;
12962;SDS011;6546;49.882;8.666;2023-03-13T01:12:07;8.63;;;3.27;;
12962;SDS011;6546;49.882;8.666;2023-03-13T01:14:34;9.37;;;2.97;;
12962;SDS011;6546;49.882;8.666;2023-03-13T01:17:01;7.00;;;2.60;;
12962;SDS011;6546;49.882;8.666;2023-03-13T01:19:28;11.40;;;3.47;;
12962;SDS011;6546;49.882;8.666;2023-03-13T01:21:55;12.50;;;3.90;;
12962;SDS011;6546;49.882;8.666;2023-03-13T01:24:23;10.13;;;2.63;;
12962;SDS011;6546;49.882;8.666;2023-03-13T01:26:49;8.93;;;2.93;;
12962;SDS011;6546;49.882;8.666;2023-03-13T01:29:16;10.00;;;3.00;;
12962;SDS011;6546;49.882;8.666;2023-03-13T01:31:42;11.53;;;4.23;;
12962;SDS011;6546;49.882;8.666;2023-03-13T01:34:09;10.67;;;3.40;;
12962;SDS011;6546;49.882;8.666;2023-03-13T01:36:37;10.53;;;3.50;;
12962;SDS011;6546;49.882;8.666;2023-03-13T01:39:04;8.70;;;2.80;;
12962;SDS011;6546;49.882;8.666;2023-03-13T01:41:33;13.27;;;3.07;;
12962;SDS011;6546;49.882;8.666;2023-03-13T01:44:00;9.07;;;2.53;;
12962;SDS011;6546;49.882;8.666;2023-03-13T01:46:27;14.27;;;2.90;;
12962;SDS011;6546;49.882;8.666;2023-03-13T01:48:55;11.90;;;3.07;;
12962;SDS011;6546;49.882;8.666;2023-03-13T01:51:26;10.23;;;3.20;;
12962;SDS011;6546;49.882;8.666;2023-03-13T01:53:56;12.63;;;2.80;;
12962;SDS011;6546;49.882;8.666;2023-03-13T01:56:30;11.53;;;2.60;;
12962;SDS011;6546;49.882;8.666;2023-03-13T01:59:02;12.07;;;3.33;;
12962;SDS011;6546;49.882;8.666;2023-03-13T02:04:06;8.67;;;2.70;;
12962;SDS011;6546;49.882;8.666;2023-03-13T02:06:34;7.73;;;2.70;;
12962;SDS011;6546;49.882;8.666;2023-03-13T02:09:04;8.20;;;2.57;;
12962;SDS011;6546;49.882;8.666;2023-03-13T02:11:36;6.17;;;2.50;;
12962;SDS011;6546;49.882;8.666;2023-03-13T02:14:10;9.37;;;2.50;;
12962;SDS011;6546;49.882;8.666;2023-03-13T02:16:37;9.57;;;2.30;;
12962;SDS011;6546;49.882;8.666;2023-03-13T02:19:06;7.93;;;2.40;;
12962;SDS011;6546;49.882;8.666;2023-03-13T02:21:42;11.40;;;2.77;;
12962;SDS011;6546;49.882;8.666;2023-03-13T02:24:16;7.00;;;2.47;;
12962;SDS011;6546;49.882;8.666;2023-03-13T02:26:51;11.13;;;2.53;;
12962;SDS011;6546;49.882;8.666;2023-03-13T02:29:18;8.27;;;2.63;;
12962;SDS011;6546;49.882;8.666;2023-03-13T02:31:45;8.47;;;2.67;;
12962;SDS011;6546;49.882;8.666;2023-03-13T02:34:13;6.87;;;2.47;;
12962;SDS011;6546;49.882;8.666;2023-03-13T02:36:42;10.83;;;2.73;;
12962;SDS011;6546;49.882;8.666;2023-03-13T02:39:10;8.43;;;2.37;;
12962;SDS011;6546;49.882;8.666;2023-03-13T02:41:41;8.30;;;2.40;;
12962;SDS011;6546;49.882;8.666;2023-03-13T02:44:10;7.33;;;2.63;;
12962;SDS011;6546;49.882;8.666;2023-03-13T02:46:44;6.00;;;2.27;;
12962;SDS011;6546;49.882;8.666;2023-03-13T02:49:24;6.77;;;1.97;;
12962;SDS011;6546;49.882;8.666;2023-03-13T02:51:52;10.00;;;2.43;;
12962;SDS011;6546;49.882;8.666;2023-03-13T02:54:21;6.03;;;2.37;;
12962;SDS011;6546;49.882;8.666;2023-03-13T02:56:51;8.77;;;2.67;;
12962;SDS011;6546;49.882;8.666;2023-03-13T02:59:22;8.47;;;3.03;;
12962;SDS011;6546;49.882;8.666;2023-03-13T03:01:49;12.40;;;2.70;;
12962;SDS011;6546;49.882;8.666;2023-03-13T03:04:17;7.93;;;2.33;;
12962;SDS011;6546;49.882;8.666;2023-03-13T03:06:44;11.10;;;2.60;;
12962;SDS011;6546;49.882;8.666;2023-03-13T03:09:10;6.90;;;2.60;;
12962;SDS011;6546;49.882;8.666;2023-03-13T03:11:37;8.27;;;2.27;;
12962;SDS011;6546;49.882;8.666;2023-03-13T03:14:04;7.73;;;2.23;;
12962;SDS011;6546;49.882;8.666;2023-03-13T03:16:32;6.40;;;2.30;;
12962;SDS011;6546;49.882;8.666;2023-03-13T03:18:58;5.87;;;2.50;;
12962;SDS011;6546;49.882;8.666;2023-03-13T03:21:25;7.50;;;1.97;;
12962;SDS011;6546;49.882;8.666;2023-03-13T03:23:51;7.90;;;2.83;;
12962;SDS011;6546;49.882;8.666;2023-03-13T03:26:18;7.73;;;2.10;;
12962;SDS011;6546;49.882;8.666;2023-03-13T03:28:45;8.60;;;2.40;;
12962;SDS011;6546;49.882;8.666;2023-03-13T03:31:12;5.93;;;2.03;;
12962;SDS011;6546;49.882;8.666;2023-03-13T03:33:41;9.53;;;2.87;;
12962;SDS011;6546;49.882;8.666;2023-03-13T03:36:09;7.30;;;2.20;;
12962;SDS011;6546;49.882;8.666;2023-03-13T03:38:38;7.33;;;2.50;;
12962;SDS011;6546;49.882;8.666;2023-03-13T03:41:05;5.90;;;2.00;;
12962;SDS011;6546;49.882;8.666;2023-03-13T03:43:32;5.57;;;2.03;;
12962;SDS011;6546;49.882;8.666;2023-03-13T03:45:59;12.17;;;2.77;;
12962;SDS011;6546;49.882;8.666;2023-03-13T03:48:25;8.97;;;2.63;;
12962;SDS011;6546;49.882;8.666;2023-03-13T03:50:54;6.83;;;2.47;;
12962;SDS011;6546;49.882;8.666;2023-03-13T03:53:20;8.80;;;2.53;;
12962;SDS011;6546;49.882;8.666;2023-03-13T03:55:47;9.63;;;2.60;;
12962;SDS011;6546;49.882;8.666;2023-03-13T03:58:13;8.07;;;2.17;;
12962;SDS011;6546;49.882;8.666;2023-03-13T04:00:41;8.97;;;2.83;;
12962;SDS011;6546;49.882;8.666;2023-03-13T04:03:08;7.57;;;2.53;;
12962;SDS011;6546;49.882;8.666;2023-03-13T04:05:35;9.73;;;2.50;;
12962;SDS011;6546;49.882;8.666;2023-03-13T04:08:03;7.40;;;2.40;;
12962;SDS011;6546;49.882;8.666;2023-03-13T04:10:30;8.00;;;2.27;;
12962;SDS011;6546;49.882;8.666;2023-03-13T04:12:56;17.73;;;10.57;;
12962;SDS011;6546;49.882;8.666;2023-03-13T04:15:23;9.00;;;2.70;;
12962;SDS011;6546;49.882;8.666;2023-03-13T04:17:50;7.43;;;2.60;;
12962;SDS011;6546;49.882;8.666;2023-03-13T04:20:17;9.60;;;2.87;;
12962;SDS011;6546;49.882;8.666;2023-03-13T04:22:44;5.23;;;2.10;;
12962;SDS011;6546;49.882;8.666;2023-03-13T04:25:12;8.67;;;2.50;;
12962;SDS011;6546;49.882;8.666;2023-03-13T04:27:38;8.03;;;1.90;;
12962;SDS011;6546;49.882;8.666;2023-03-13T04:30:05;8.87;;;2.50;;
12962;SDS011;6546;49.882;8.666;2023-03-13T04:32:33;9.60;;;2.67;;
12962;SDS011;6546;49.882;8.666;2023-03-13T04:35:00;6.10;;;2.37;;
12962;SDS011;6546;49.882;8.666;2023-03-13T04:37:26;7.77;;;2.53;;
12962;SDS011;6546;49.882;8.666;2023-03-13T04:39:53;6.37;;;2.10;;
12962;SDS011;6546;49.882;8.666;2023-03-13T04:42:21;5.70;;;2.03;;
12962;SDS011;6546;49.882;8.666;2023-03-13T04:44:47;5.07;;;1.80;;
12962;SDS011;6546;49.882;8.666;2023-03-13T04:47:14;6.40;;;1.80;;
12962;SDS011;6546;49.882;8.666;2023-03-13T04:49:40;6.33;;;2.20;;
12962;SDS011;6546;49.882;8.666;2023-03-13T04:52:07;7.73;;;1.60;;
12962;SDS011;6546;49.882;8.666;2023-03-13T04:54:33;5.67;;;1.80;;
12962;SDS011;6546;49.882;8.666;2023-03-13T04:57:00;5.23;;;1.83;;
12962;SDS011;6546;49.882;8.666;2023-03-13T04:59:28;7.30;;;1.73;;
12962;SDS011;6546;49.882;8.666;2023-03-13T05:01:55;8.17;;;1.93;;
12962;SDS011;6546;49.882;8.666;2023-03-13T05:04:21;5.43;;;1.63;;
12962;SDS011;6546;49.882;8.666;2023-03-13T05:06:48;6.17;;;1.60;;
12962;SDS011;6546;49.882;8.666;2023-03-13T05:09:14;5.53;;;1.60;;
12962;SDS011;6546;49.882;8.666;2023-03-13T05:11:41;5.07;;;1.70;;
12962;SDS011;6546;49.882;8.666;2023-03-13T05:14:08;3.97;;;1.70;;
12962;SDS011;6546;49.882;8.666;2023-03-13T05:16:37;5.37;;;1.60;;
12962;SDS011;6546;49.882;8.666;2023-03-13T05:19:03;5.00;;;1.60;;
12962;SDS011;6546;49.882;8.666;2023-03-13T05:21:30;5.13;;;1.70;;
12962;SDS011;6546;49.882;8.666;2023-03-13T05:23:56;5.67;;;1.80;;
12962;SDS011;6546;49.882;8.666;2023-03-13T05:26:23;3.63;;;1.60;;
12962;SDS011;6546;49.882;8.666;2023-03-13T05:28:49;5.30;;;1.73;;
12962;SDS011;6546;49.882;8.666;2023-03-13T05:31:16;6.73;;;1.80;;
12962;SDS011;6546;49.882;8.666;2023-03-13T05:33:44;4.93;;;1.73;;
12962;SDS011;6546;49.882;8.666;2023-03-13T05:36:10;5.90;;;2.43;;
12962;SDS011;6546;49.882;8.666;2023-03-13T05:38:37;7.00;;;1.87;;
12962;SDS011;6546;49.882;8.666;2023-03-13T05:41:04;3.73;;;1.53;;
12962;SDS011;6546;49.882;8.666;2023-03-13T05:43:30;5.30;;;1.70;;
12962;SDS011;6546;49.882;8.666;2023-03-13T05:45:57;3.37;;;1.57;;
12962;SDS011;6546;49.882;8.666;2023-03-13T05:48:24;3.33;;;1.83;;
12962;SDS011;6546;49.882;8.666;2023-03-13T05:50:52;3.73;;;2.07;;
12962;SDS011;6546;49.882;8.666;2023-03-13T05:53:19;4.33;;;1.77;;
12962;SDS011;6546;49.882;8.666;2023-03-13T05:55:45;4.33;;;2.10;;
12962;SDS011;6546;49.882;8.666;2023-03-13T05:58:12;6.30;;;2.20;;
12962;SDS011;6546;49.882;8.666;2023-03-13T06:00:39;4.17;;;1.90;;
12962;SDS011;6546;49.882;8.666;2023-03-13T06:03:07;7.03;;;2.20;;
12962;SDS011;6546;49.882;8.666;2023-03-13T06:05:34;3.60;;;1.90;;
12962;SDS011;6546;49.882;8.666;2023-03-13T06:08:02;5.00;;;2.00;;
12962;SDS011;6546;49.882;8.666;2023-03-13T06:10:29;3.10;;;1.80;;
12962;SDS011;6546;49.882;8.666;2023-03-13T06:12:56;3.23;;;1.77;;
12962;SDS011;6546;49.882;8.666;2023-03-13T06:15:22;2.97;;;1.80;;
12962;SDS011;6546;49.882;8.666;2023-03-13T06:17:49;6.10;;;2.00;;
12962;SDS011;6546;49.882;8.666;2023-03-13T06:20:16;3.70;;;1.83;;
12962;SDS011;6546;49.882;8.666;2023-03-13T06:22:42;5.10;;;2.10;;
12962;SDS011;6546;49.882;8.666;2023-03-13T06:25:10;6.30;;;3.43;;
12962;SDS011;6546;49.882;8.666;2023-03-13T06:27:37;7.03;;;2.20;;
12962;SDS011;6546;49.882;8.666;2023-03-13T06:30:03;5.00;;;2.40;;
12962;SDS011;6546;49.882;8.666;2023-03-13T06:32:30;4.27;;;2.20;;
12962;SDS011;6546;49.882;8.666;2023-03-13T06:34:57;3.97;;;2.70;;
12962;SDS011;6546;49.882;8.666;2023-03-13T06:37:23;4.77;;;1.80;;
12962;SDS011;6546;49.882;8.666;2023-03-13T06:39:50;3.23;;;1.93;;
12962;SDS011;6546;49.882;8.666;2023-03-13T06:42:18;3.23;;;1.77;;
12962;SDS011;6546;49.882;8.666;2023-03-13T06:44:45;4.03;;;1.80;;
12962;SDS011;6546;49.882;8.666;2023-03-13T06:47:11;2.63;;;1.63;;
12962;SDS011;6546;49.882;8.666;2023-03-13T06:49:38;2.93;;;1.63;;
12962;SDS011;6546;49.882;8.666;2023-03-13T06:52:04;2.27;;;1.50;;
12962;SDS011;6546;49.882;8.666;2023-03-13T06:54:31;1.83;;;1.43;;
12962;SDS011;6546;49.882;8.666;2023-03-13T06:56:57;1.87;;;1.43;;
12962;SDS011;6546;49.882;8.666;2023-03-13T06:59:25;2.47;;;1.60;;
12962;SDS011;6546;49.882;8.666;2023-03-13T07:01:52;4.80;;;1.97;;
12962;SDS011;6546;49.882;8.666;2023-03-13T07:04:19;3.97;;;1.87;;
12962;SDS011;6546;49.882;8.666;2023-03-13T07:06:46;3.77;;;2.17;;
12962;SDS011;6546;49.882;8.666;2023-03-13T07:09:13;5.60;;;2.17;;
12962;SDS011;6546;49.882;8.666;2023-03-13T07:11:39;2.53;;;1.70;;
12962;SDS011;6546;49.882;8.666;2023-03-13T07:14:06;4.30;;;1.70;;
12962;SDS011;6546;49.882;8.666;2023-03-13T07:16:34;5.53;;;3.60;;
12962;SDS011;6546;49.882;8.666;2023-03-13T07:19:01;9.33;;;6.33;;
12962;SDS011;6546;49.882;8.666;2023-03-13T07:21:28;4.20;;;1.90;;
12962;SDS011;6546;49.882;8.666;2023-03-13T07:23:54;3.60;;;1.57;;
12962;SDS011;6546;49.882;8.666;2023-03-13T07:26:21;4.77;;;1.90;;
12962;SDS011;6546;49.882;8.666;2023-03-13T07:28:48;3.20;;;1.60;;
12962;SDS011;6546;49.882;8.666;2023-03-13T07:31:15;5.37;;;1.83;;
12962;SDS011;6546;49.882;8.666;2023-03-13T07:33:44;5.13;;;2.33;;
12962;SDS011;6546;49.882;8.666;2023-03-13T07:36:12;2.60;;;1.53;;
12962;SDS011;6546;49.882;8.666;2023-03-13T07:38:40;3.50;;;1.60;;
12962;SDS011;6546;49.882;8.666;2023-03-13T07:41:09;1.63;;;1.43;;
12962;SDS011;6546;49.882;8.666;2023-03-13T07:43:37;2.83;;;1.60;;
12962;SDS011;6546;49.882;8.666;2023-03-13T07:46:04;2.40;;;1.07;;
12962;SDS011;6546;49.882;8.666;2023-03-13T07:48:33;2.73;;;1.40;;
12962;SDS011;6546;49.882;8.666;2023-03-13T07:51:04;2.13;;;1.20;;
12962;SDS011;6546;49.882;8.666;2023-03-13T07:53:32;2.27;;;1.60;;
12962;SDS011;6546;49.882;8.666;2023-03-13T07:56:00;1.90;;;1.33;;
12962;SDS011;6546;49.882;8.666;2023-03-13T07:58:29;4.00;;;1.77;;
12962;SDS011;6546;49.882;8.666;2023-03-13T08:00:57;2.83;;;1.60;;
12962;SDS011;6546;49.882;8.666;2023-03-13T08:03:24;4.20;;;1.57;;
12962;SDS011;6546;49.882;8.666;2023-03-13T08:05:56;3.57;;;1.77;;
12962;SDS011;6546;49.882;8.666;2023-03-13T08:08:24;4.13;;;1.80;;
12962;SDS011;6546;49.882;8.666;2023-03-13T08:10:51;3.20;;;1.43;;
12962;SDS011;6546;49.882;8.666;2023-03-13T08:13:18;4.10;;;1.63;;
12962;SDS011;6546;49.882;8.666;2023-03-13T08:15:45;1.87;;;1.50;;
12962;SDS011;6546;49.882;8.666;2023-03-13T08:18:12;2.50;;;2.03;;
12962;SDS011;6546;49.882;8.666;2023-03-13T08:20:38;3.40;;;2.13;;
12962;SDS011;6546;49.882;8.666;2023-03-13T08:23:05;2.97;;;1.80;;
12962;SDS011;6546;49.882;8.666;2023-03-13T08:25:33;2.87;;;2.00;;
12962;SDS011;6546;49.882;8.666;2023-03-13T08:27:59;2.73;;;1.90;;
12962;SDS011;6546;49.882;8.666;2023-03-13T08:30:26;1.93;;;1.80;;
12962;SDS011;6546;49.882;8.666;2023-03-13T08:32:53;1.80;;;1.70;;
12962;SDS011;6546;49.882;8.666;2023-03-13T08:35:19;3.50;;;2.00;;
12962;SDS011;6546;49.882;8.666;2023-03-13T08:37:46;2.13;;;2.00;;
12962;SDS011;6546;49.882;8.666;2023-03-13T08:40:13;2.37;;;1.80;;
12962;SDS011;6546;49.882;8.666;2023-03-13T08:42:41;2.40;;;2.20;;
12962;SDS011;6546;49.882;8.666;2023-03-13T08:45:07;2.17;;;1.90;;
12962;SDS011;6546;49.882;8.666;2023-03-13T08:47:34;4.97;;;1.80;;
12962;SDS011;6546;49.882;8.666;2023-03-13T08:50:02;2.80;;;1.90;;
12962;SDS011;6546;49.882;8.666;2023-03-13T08:52:29;2.77;;;1.90;;
12962;SDS011;6546;49.882;8.666;2023-03-13T08:54:55;2.60;;;1.90;;
12962;SDS011;6546;49.882;8.666;2023-03-13T08:57:22;2.63;;;1.80;;
12962;SDS011;6546;49.882;8.666;2023-03-13T08:59:50;1.73;;;1.60;;
12962;SDS011;6546;49.882;8.666;2023-03-13T09:02:17;2.67;;;1.70;;
12962;SDS011;6546;49.882;8.666;2023-03-13T09:04:48;3.07;;;1.80;;
12962;SDS011;6546;49.882;8.666;2023-03-13T09:07:14;2.07;;;1.60;;
12962;SDS011;6546;49.882;8.666;2023-03-13T09:09:42;3.43;;;1.80;;
12962;SDS011;6546;49.882;8.666;2023-03-13T09:12:09;3.83;;;1.70;;
12962;SDS011;6546;49.882;8.666;2023-03-13T09:14:36;2.30;;;1.80;;
12962;SDS011;6546;49.882;8.666;2023-03-13T09:17:04;3.10;;;1.77;;
12962;SDS011;6546;49.882;8.666;2023-03-13T09:19:31;1.87;;;1.60;;
12962;SDS011;6546;49.882;8.666;2023-03-13T09:21:58;2.27;;;1.93;;
12962;SDS011;6546;49.882;8.666;2023-03-13T09:24:25;2.30;;;1.70;;
12962;SDS011;6546;49.882;8.666;2023-03-13T09:26:52;3.83;;;1.90;;
12962;SDS011;6546;49.882;8.666;2023-03-13T09:29:18;1.97;;;1.70;;
12962;SDS011;6546;49.882;8.666;2023-03-13T09:31:45;1.90;;;1.50;;
12962;SDS011;6546;49.882;8.666;2023-03-13T09:34:13;2.57;;;1.90;;
12962;SDS011;6546;49.882;8.666;2023-03-13T09:36:40;4.13;;;1.90;;
12962;SDS011;6546;49.882;8.666;2023-03-13T09:39:06;3.87;;;1.80;;
12962;SDS011;6546;49.882;8.666;2023-03-13T09:41:34;3.30;;;2.30;;
12962;SDS011;6546;49.882;8.666;2023-03-13T09:44:06;3.27;;;2.30;;
12962;SDS011;6546;49.882;8.666;2023-03-13T09:46:41;4.13;;;2.13;;
12962;SDS011;6546;49.882;8.666;2023-03-13T09:49:17;2.70;;;2.20;;
12962;SDS011;6546;49.882;8.666;2023-03-13T09:51:55;4.30;;;3.07;;
12962;SDS011;6546;49.882;8.666;2023-03-13T09:54:32;3.63;;;2.70;;
12962;SDS011;6546;49.882;8.666;2023-03-13T09:57:04;3.30;;;2.00;;
12962;SDS011;6546;49.882;8.666;2023-03-13T09:59:40;3.83;;;2.57;;
12962;SDS011;6546;49.882;8.666;2023-03-13T10:02:15;5.90;;;4.10;;
12962;SDS011;6546;49.882;8.666;2023-03-13T10:04:50;3.23;;;2.43;;
12962;SDS011;6546;49.882;8.666;2023-03-13T10:07:22;2.17;;;1.93;;
12962;SDS011;6546;49.882;8.666;2023-03-13T10:09:48;2.93;;;2.23;;
12962;SDS011;6546;49.882;8.666;2023-03-13T10:12:17;2.30;;;2.00;;
12962;SDS011;6546;49.882;8.666;2023-03-13T10:14:47;3.33;;;2.20;;
12962;SDS011;6546;49.882;8.666;2023-03-13T10:17:27;2.67;;;1.97;;
12962;SDS011;6546;49.882;8.666;2023-03-13T10:19:58;2.47;;;1.93;;
12962;SDS011;6546;49.882;8.666;2023-03-13T10:22:32;2.87;;;2.00;;
12962;SDS011;6546;49.882;8.666;2023-03-13T10:25:00;2.77;;;1.90;;
12962;SDS011;6546;49.882;8.666;2023-03-13T10:27:30;3.83;;;1.73;;
12962;SDS011;6546;49.882;8.666;2023-03-13T10:29:56;4.50;;;2.30;;
12962;SDS011;6546;49.882;8.666;2023-03-13T10:32:23;5.03;;;2.33;;
12962;SDS011;6546;49.882;8.666;2023-03-13T10:34:51;2.77;;;2.13;;
12962;SDS011;6546;49.882;8.666;2023-03-13T10:37:23;3.43;;;2.30;;
12962;SDS011;6546;49.882;8.666;2023-03-13T10:39:51;3.73;;;1.97;;
12962;SDS011;6546;49.882;8.666;2023-03-13T10:42:20;2.17;;;1.90;;
12962;SDS011;6546;49.882;8.666;2023-03-13T10:44:54;2.87;;;1.87;;
12962;SDS011;6546;49.882;8.666;2023-03-13T10:47:23;4.77;;;1.87;;
12962;SDS011;6546;49.882;8.666;2023-03-13T10:49:50;2.77;;;2.00;;
12962;SDS011;6546;49.882;8.666;2023-03-13T10:52:32;1.73;;;1.63;;
12962;SDS011;6546;49.882;8.666;2023-03-13T10:55:01;3.03;;;2.10;;
12962;SDS011;6546;49.882;8.666;2023-03-13T10:57:30;3.80;;;2.20;;
12962;SDS011;6546;49.882;8.666;2023-03-13T10:59:57;7.07;;;2.60;;
12962;SDS011;6546;49.882;8.666;2023-03-13T11:02:26;2.50;;;2.27;;
12962;SDS011;6546;49.882;8.666;2023-03-13T11:04:57;7.37;;;4.47;;
12962;SDS011;6546;49.882;8.666;2023-03-13T11:07:25;5.10;;;2.27;;
12962;SDS011;6546;49.882;8.666;2023-03-13T11:09:59;3.20;;;2.00;;
12962;SDS011;6546;49.882;8.666;2023-03-13T11:12:32;3.53;;;2.07;;
12962;SDS011;6546;49.882;8.666;2023-03-13T11:15:00;3.03;;;2.20;;
12962;SDS011;6546;49.882;8.666;2023-03-13T11:17:33;5.27;;;2.00;;
12962;SDS011;6546;49.882;8.666;2023-03-13T11:20:07;3.30;;;2.23;;
12962;SDS011;6546;49.882;8.666;2023-03-13T11:22:54;4.60;;;2.03;;
12962;SDS011;6546;49.882;8.666;2023-03-13T11:25:33;4.73;;;2.50;;
12962;SDS011;6546;49.882;8.666;2023-03-13T11:28:11;2.60;;;1.90;;
12962;SDS011;6546;49.882;8.666;2023-03-13T11:30:48;5.43;;;2.60;;
12962;SDS011;6546;49.882;8.666;2023-03-13T11:33:27;3.50;;;2.07;;
12962;SDS011;6546;49.882;8.666;2023-03-13T11:35:59;3.03;;;2.63;;
12962;SDS011;6546;49.882;8.666;2023-03-13T11:38:31;3.70;;;2.73;;
12962;SDS011;6546;49.882;8.666;2023-03-13T11:41:04;3.87;;;2.80;;
12962;SDS011;6546;49.882;8.666;2023-03-13T11:46:39;5.53;;;2.70;;
12962;SDS011;6546;49.882;8.666;2023-03-13T11:49:30;4.70;;;2.70;;
12962;SDS011;6546;49.882;8.666;2023-03-13T11:52:09;3.00;;;2.50;;
12962;SDS011;6546;49.882;8.666;2023-03-13T11:54:55;6.30;;;3.90;;
12962;SDS011;6546;49.882;8.666;2023-03-13T11:57:36;5.03;;;3.40;;
12962;SDS011;6546;49.882;8.666;2023-03-13T12:00:14;4.53;;;2.60;;
12962;SDS011;6546;49.882;8.666;2023-03-13T12:02:53;2.83;;;2.50;;
12962;SDS011;6546;49.882;8.666;2023-03-13T12:05:24;3.90;;;2.53;;
12962;SDS011;6546;49.882;8.666;2023-03-13T12:07:54;3.60;;;2.10;;
12962;SDS011;6546;49.882;8.666;2023-03-13T12:10:28;5.60;;;2.40;;
12962;SDS011;6546;49.882;8.666;2023-03-13T12:13:02;4.07;;;2.00;;
12962;SDS011;6546;49.882;8.666;2023-03-13T12:15:33;2.53;;;2.07;;
12962;SDS011;6546;49.882;8.666;2023-03-13T12:18:04;3.63;;;2.00;;
12962;SDS011;6546;49.882;8.666;2023-03-13T12:20:38;4.67;;;2.30;;
12962;SDS011;6546;49.882;8.666;2023-03-13T12:23:15;3.37;;;2.10;;
12962;SDS011;6546;49.882;8.666;2023-03-13T12:25:44;4.23;;;2.43;;
12962;SDS011;6546;49.882;8.666;2023-03-13T12:28:20;5.30;;;1.97;;
12962;SDS011;6546;49.882;8.666;2023-03-13T12:30:55;4.37;;;2.20;;
12962;SDS011;6546;49.882;8.666;2023-03-13T12:33:28;3.80;;;2.20;;
12962;SDS011;6546;49.882;8.666;2023-03-13T12:36:01;3.03;;;2.20;;
12962;SDS011;6546;49.882;8.666;2023-03-13T12:38:33;3.03;;;2.27;;
12962;SDS011;6546;49.882;8.666;2023-03-13T12:41:07;2.90;;;2.00;;
12962;SDS011;6546;49.882;8.666;2023-03-13T12:43:46;3.90;;;1.70;;
12962;SDS011;6546;49.882;8.666;2023-03-13T12:46:24;5.50;;;2.20;;
12962;SDS011;6546;49.882;8.666;2023-03-13T12:52:11;2.90;;;2.03;;
12962;SDS011;6546;49.882;8.666;2023-03-13T12:54:56;3.93;;;1.90;;
12962;SDS011;6546;49.882;8.666;2023-03-13T12:57:48;2.83;;;1.90;;
12962;SDS011;6546;49.882;8.666;2023-03-13T13:00:31;3.87;;;1.90;;
12962;SDS011;6546;49.882;8.666;2023-03-13T13:03:13;2.73;;;1.80;;
12962;SDS011;6546;49.882;8.666;2023-03-13T13:05:57;3.60;;;2.30;;
12962;SDS011;6546;49.882;8.666;2023-03-13T13:08:25;4.37;;;2.20;;
12962;SDS011;6546;49.882;8.666;2023-03-13T13:20:33;4.30;;;1.83;;
12962;SDS011;6546;49.882;8.666;2023-03-13T13:23:25;5.57;;;2.03;;
12962;SDS011;6546;49.882;8.666;2023-03-13T13:26:35;3.93;;;2.30;;
12962;SDS011;6546;49.882;8.666;2023-03-13T13:32:37;2.30;;;2.10;;
12962;SDS011;6546;49.882;8.666;2023-03-13T13:35:19;3.53;;;2.30;;
12962;SDS011;6546;49.882;8.666;2023-03-13T13:37:50;3.13;;;1.60;;
12962;SDS011;6546;49.882;8.666;2023-03-13T13:40:20;3.17;;;1.93;;
12962;SDS011;6546;49.882;8.666;2023-03-13T13:42:50;2.97;;;1.90;;
12962;SDS011;6546;49.882;8.666;2023-03-13T13:45:27;3.37;;;1.80;;
12962;SDS011;6546;49.882;8.666;2023-03-13T13:48:15;3.60;;;1.80;;
12962;SDS011;6546;49.882;8.666;2023-03-13T13:54:00;1.83;;;1.40;;
12962;SDS011;6546;49.882;8.666;2023-03-13T13:56:29;3.17;;;1.73;;
12962;SDS011;6546;49.882;8.666;2023-03-13T13:59:02;2.53;;;1.60;;
12962;SDS011;6546;49.882;8.666;2023-03-13T14:01:31;1.60;;;1.47;;
12962;SDS011;6546;49.882;8.666;2023-03-13T14:04:02;2.60;;;1.60;;
12962;SDS011;6546;49.882;8.666;2023-03-13T14:06:36;3.13;;;1.50;;
12962;SDS011;6546;49.882;8.666;2023-03-13T14:09:12;3.13;;;1.60;;
12962;SDS011;6546;49.882;8.666;2023-03-13T14:11:47;2.23;;;1.50;;
12962;SDS011;6546;49.882;8.666;2023-03-13T14:14:14;3.53;;;1.70;;
12962;SDS011;6546;49.882;8.666;2023-03-13T14:16:43;4.53;;;1.60;;
12962;SDS011;6546;49.882;8.666;2023-03-13T14:19:21;1.60;;;1.50;;
12962;SDS011;6546;49.882;8.666;2023-03-13T14:21:50;1.60;;;1.40;;
12962;SDS011;6546;49.882;8.666;2023-03-13T14:24:24;1.90;;;1.60;;
12962;SDS011;6546;49.882;8.666;2023-03-13T14:26:51;4.63;;;2.20;;
12962;SDS011;6546;49.882;8.666;2023-03-13T14:29:18;4.03;;;3.00;;
12962;SDS011;6546;49.882;8.666;2023-03-13T14:31:50;3.87;;;2.93;;
12962;SDS011;6546;49.882;8.666;2023-03-13T14:34:18;3.40;;;1.83;;
12962;SDS011;6546;49.882;8.666;2023-03-13T14:36:45;1.80;;;1.70;;
12962;SDS011;6546;49.882;8.666;2023-03-13T14:39:16;2.03;;;1.63;;
12962;SDS011;6546;49.882;8.666;2023-03-13T14:41:46;3.20;;;1.60;;
12962;SDS011;6546;49.882;8.666;2023-03-13T14:44:16;2.20;;;1.83;;
12962;SDS011;6546;49.882;8.666;2023-03-13T14:46:49;2.07;;;1.60;;
12962;SDS011;6546;49.882;8.666;2023-03-13T14:49:21;5.23;;;1.77;;
12962;SDS011;6546;49.882;8.666;2023-03-13T14:51:57;2.50;;;1.50;;
12962;SDS011;6546;49.882;8.666;2023-03-13T14:54:27;2.70;;;1.60;;
12962;SDS011;6546;49.882;8.666;2023-03-13T14:57:12;2.83;;;1.23;;
12962;SDS011;6546;49.882;8.666;2023-03-13T14:59:40;1.97;;;1.50;;
12962;SDS011;6546;49.882;8.666;2023-03-13T15:02:17;2.90;;;1.53;;
12962;SDS011;6546;49.882;8.666;2023-03-13T15:04:50;2.93;;;1.70;;
12962;SDS011;6546;49.882;8.666;2023-03-13T15:07:23;1.40;;;1.30;;
12962;SDS011;6546;49.882;8.666;2023-03-13T15:09:51;4.17;;;1.83;;
12962;SDS011;6546;49.882;8.666;2023-03-13T15:12:20;6.03;;;1.77;;
12962;SDS011;6546;49.882;8.666;2023-03-13T15:14:48;2.27;;;1.70;;
12962;SDS011;6546;49.882;8.666;2023-03-13T15:17:17;2.70;;;1.90;;
12962;SDS011;6546;49.882;8.666;2023-03-13T15:19:49;2.57;;;1.63;;
12962;SDS011;6546;49.882;8.666;2023-03-13T15:22:17;2.63;;;1.77;;
12962;SDS011;6546;49.882;8.666;2023-03-13T15:24:50;1.50;;;1.40;;
12962;SDS011;6546;49.882;8.666;2023-03-13T15:27:17;3.43;;;1.80;;
12962;SDS011;6546;49.882;8.666;2023-03-13T15:29:46;2.97;;;1.60;;
12962;SDS011;6546;49.882;8.666;2023-03-13T15:32:15;3.53;;;1.63;;
12962;SDS011;6546;49.882;8.666;2023-03-13T15:34:47;1.77;;;1.60;;
12962;SDS011;6546;49.882;8.666;2023-03-13T15:37:14;4.17;;;2.20;;
12962;SDS011;6546;49.882;8.666;2023-03-13T15:39:41;5.70;;;2.90;;